Data for 10/23/2013

Time Sea-Level Adjusted Pressure Absolute Pressure Temperature Relative Humidity Dew Point Precipitation   
(mb) (inHg) (mb) (inHg) (C) (F) (%) (C) (F) (mm) (in)
00:05 1024 30.24 854 25.22 -0.8 30.5 82 -3.5 25.7 0 0
00:10 1024 30.24 854 25.22 -0.2 31.6 78 -3.6 25.5 0 0
00:15 1024 30.24 854 25.22 -0.3 31.5 78 -3.6 25.5 0 0
00:20 1024 30.24 854 25.22 -0.7 30.8 80 -3.7 25.4 0 0
00:25 1024 30.24 854 25.22 -0.5 31.1 79 -3.7 25.4 0 0
00:30 1024 30.24 854 25.22 -0.5 31.1 79 -3.6 25.4 0 0
00:35 1024 30.24 854 25.22 -0.1 31.9 76 -3.8 25.2 0 0
00:40 1025 30.27 854 25.22 0.2 32.4 74 -3.9 25 0 0
00:45 1025 30.27 854 25.22 0.5 32.9 73 -3.9 25.1 0 0
00:50 1025 30.27 854 25.22 0.5 33 76 -3.2 26.2 0 0
00:55 1025 30.27 854 25.22 -0.6 30.8 81 -3.5 25.6 0 0
01:00 1025 30.27 854 25.22 -0.8 30.5 80 -3.8 25.1 0 0
01:05 1025 30.27 854 25.22 -0.5 31.2 79 -3.7 25.3 0 0
01:10 1024 30.24 854 25.22 -0 32 75 -3.9 24.9 0 0
01:15 1024 30.24 854 25.22 -0.4 31.3 77 -4 24.9 0 0
01:20 1024 30.24 854 25.22 0.4 32.8 75 -3.6 25.6 0 0
01:25 1024 30.24 854 25.22 0.1 32.2 76 -3.6 25.5 0 0
01:30 1024 30.24 854 25.22 -0.2 31.6 77 -3.8 25.2 0 0
01:35 1024 30.24 854 25.22 -0.2 31.7 78 -3.5 25.7 0 0
01:40 1024 30.24 854 25.22 -0.3 31.5 79 -3.5 25.7 0 0
01:45 1024 30.24 854 25.22 0 32 77 -3.5 25.6 0 0
01:50 1024 30.24 854 25.22 0.4 32.7 75 -3.6 25.6 0 0
01:55 1024 30.24 854 25.22 0.7 33.2 71 -3.9 24.9 0 0
02:00 1024 30.24 854 25.22 0 32 76 -3.7 25.4 0 0
02:05 1024 30.24 854 25.22 -0.1 31.8 77 -3.7 25.3 0 0
02:10 1024 30.24 854 25.22 0.3 32.5 74 -3.8 25.2 0 0
02:15 1024 30.24 854 25.22 0 32 75 -3.8 25.1 0 0
02:20 1024 30.24 854 25.22 0.1 32.2 75 -3.9 25 0 0
02:25 1025 30.27 854 25.22 0.5 32.9 72 -4 24.7 0 0
02:30 1025 30.27 854 25.22 0.9 33.7 71 -3.7 25.3 0 0
02:35 1025 30.27 854 25.22 0.6 33 74 -3.6 25.6 0 0
02:40 1025 30.27 854 25.22 0.1 32.3 75 -3.9 25.1 0 0
02:45 1025 30.27 854 25.22 0.1 32.2 73 -4.2 24.4 0 0
02:50 1024 30.24 854 25.22 1.1 33.9 69 -3.9 24.9 0 0
02:55 1024 30.24 854 25.22 1.2 34.2 72 -3.3 26.1 0 0
03:00 1024 30.24 854 25.22 0.4 32.7 74 -3.7 25.4 0 0
03:05 1024 30.24 854 25.22 -0.5 31.1 77 -4 24.8 0 0
03:10 1025 30.27 854 25.22 -1.2 29.8 81 -4 24.8 0 0
03:15 1024 30.24 854 25.22 -0.9 30.5 79 -4 24.7 0 0
03:20 1024 30.24 854 25.22 -0.9 30.4 78 -4.3 24.3 0 0
03:25 1024 30.24 854 25.22 -1.1 30 80 -4.1 24.6 0 0
03:30 1024 30.24 854 25.22 -1.1 30.1 80 -4 24.8 0 0
03:35 1024 30.24 854 25.22 -1.3 29.6 83 -3.8 25.1 0 0
03:40 1024 30.24 854 25.22 -1 30.2 80 -3.9 24.9 0 0
03:45 1024 30.24 854 25.22 -0.4 31.3 77 -3.9 25 0 0
03:50 1024 30.24 854 25.22 0.4 32.8 72 -3.9 24.9 0 0
03:55 1024 30.24 854 25.22 1.1 33.9 70 -3.7 25.3 0 0
04:00 1024 30.24 854 25.22 0.5 32.9 74 -3.5 25.6 0 0
04:05 1025 30.27 854 25.22 -0.7 30.8 76 -4.4 24.2 0 0
04:10 1024 30.24 854 25.22 -0.8 30.5 79 -4.1 24.7 0 0
04:15 1025 30.27 854 25.22 -0.9 30.3 77 -4.4 24.1 0 0
04:20 1025 30.27 854 25.22 -1.2 29.9 77 -4.7 23.6 0 0
04:25 1025 30.27 854 25.22 -0.3 31.4 73 -4.7 23.6 0 0
04:30 1025 30.27 854 25.22 -0.2 31.6 75 -4.2 24.5 0 0
04:35 1025 30.27 854 25.22 -0.8 30.6 75 -4.7 23.6 0 0
04:40 1025 30.27 854 25.22 0.5 32.9 68 -4.7 23.5 0 0
04:45 1025 30.27 854 25.22 0.7 33.3 72 -3.8 25.1 0 0
04:50 1025 30.27 854 25.22 -0.1 31.8 74 -4.3 24.3 0 0
04:55 1025 30.27 854 25.22 -0.3 31.5 73 -4.6 23.7 0 0
05:00 1025 30.27 854 25.22 -0.7 30.7 77 -4.3 24.3 0 0
05:05 1025 30.27 854 25.22 -1.8 28.8 79 -4.9 23.2 0 0
05:10 1025 30.27 854 25.22 -2.1 28.2 83 -4.7 23.6 0 0
05:15 1025 30.27 854 25.22 -1.6 29.1 79 -4.7 23.5 0 0
05:20 1025 30.27 854 25.22 -0.9 30.3 74 -5.1 22.9 0 0
05:25 1025 30.27 854 25.22 0.4 32.7 70 -4.4 24.2 0 0
05:30 1025 30.27 854 25.22 -0 32 73 -4.3 24.2 0 0
05:35 1025 30.27 854 25.22 -0.4 31.3 76 -4.1 24.7 0 0
05:40 1025 30.27 854 25.22 -1.2 29.8 79 -4.4 24 0 0
05:45 1025 30.27 854 25.22 -2 28.4 82 -4.7 23.5 0 0
05:50 1025 30.27 854 25.22 -2.1 28.2 80 -5.1 22.8 0 0
05:55 1025 30.27 854 25.22 -1.5 29.2 78 -4.8 23.3 0 0
06:00 1025 30.27 854 25.22 -2.4 27.7 83 -4.9 23.2 0 0
06:05 1025 30.27 854 25.22 -2.8 27 83 -5.3 22.5 0 0
06:10 1025 30.27 854 25.22 -2.6 27.2 82 -5.2 22.6 0 0
06:15 1025 30.27 854 25.22 -2.5 27.6 82 -5 22.9 0 0
06:20 1025 30.27 854 25.22 -2.5 27.5 84 -4.9 23.2 0 0
06:25 1025 30.27 854 25.22 -2.2 28 81 -5 23 0 0
06:30 1025 30.27 854 25.22 -1.3 29.6 79 -4.6 23.8 0 0
06:35 1025 30.27 854 25.22 -1.1 30 78 -4.5 24 0 0
06:40 1025 30.27 854 25.22 -1.4 29.5 77 -4.8 23.3 0 0
06:45 1025 30.27 854 25.22 -1.5 29.3 79 -4.7 23.6 0 0
06:50 1025 30.27 854 25.22 -2.3 27.8 83 -4.8 23.3 0 0
06:55 1025 30.27 854 25.22 -2.6 27.3 83 -5.2 22.7 0 0
07:00 1025 30.27 854 25.22 -3 26.7 86 -5 23 0 0
07:05 1025 30.27 854 25.22 -2.8 26.9 86 -4.8 23.3 0 0
07:10 1025 30.27 854 25.22 -2.3 27.8 83 -4.8 23.3 0 0
07:15 1025 30.27 854 25.22 -2.3 27.9 82 -4.9 23.1 0 0
07:20 1025 30.27 854 25.22 -2.6 27.3 83 -5.1 22.8 0 0
07:25 1025 30.27 854 25.22 -2.6 27.2 84 -5 22.9 0 0
07:30 1025 30.27 854 25.22 -2.6 27.4 83 -5.1 22.7 0 0
07:35 1025 30.27 854 25.22 -2.7 27.1 84 -5.1 22.8 0 0
07:40 1025 30.27 854 25.22 -2.7 27.1 83 -5.3 22.5 0 0
07:45 1025 30.27 854 25.22 -2.8 26.9 83 -5.3 22.5 0 0
07:50 1025 30.27 854 25.22 -3.2 26.3 85 -5.4 22.3 0 0
07:55 1025 30.27 854 25.22 -3.1 26.4 85 -5.3 22.4 0 0
08:00 1025 30.27 854 25.22 -3.1 26.5 85 -5.2 22.7 0 0
08:05 1025 30.27 854 25.22 -2.8 27 83 -5.2 22.6 0 0
08:10 1025 30.27 855 25.25 -2.2 28.1 82 -4.8 23.3 0 0
08:15 1025 30.27 854 25.22 -1.4 29.4 80 -4.5 23.9 0 0
08:20 1025 30.27 855 25.25 -1.2 29.9 79 -4.3 24.2 0 0
08:25 1025 30.27 855 25.25 -1.2 29.8 79 -4.3 24.2 0 0
08:30 1025 30.27 855 25.25 -1.1 30 80 -4.1 24.6 0 0
08:35 1025 30.27 855 25.25 -0.7 30.7 78 -4 24.8 0 0
08:40 1025 30.27 855 25.25 -0.3 31.4 79 -3.5 25.7 0 0
08:45 1025 30.27 855 25.25 0.1 32.2 77 -3.5 25.7 0 0
08:50 1026 30.3 855 25.25 0.7 33.3 75 -3.2 26.3 0 0
08:55 1026 30.3 855 25.25 1.5 34.7 72 -3 26.5 0 0
09:00 1026 30.3 855 25.25 2.2 36 71 -2.4 27.6 0 0
09:05 1026 30.3 855 25.25 2.6 36.6 69 -2.6 27.3 0 0
09:10 1026 30.3 855 25.25 3 37.4 67 -2.5 27.5 0 0
09:15 1026 30.3 855 25.25 3.3 38 67 -2.3 27.9 0 0
09:20 1026 30.3 855 25.25 3.8 38.9 64 -2.4 27.6 0 0
09:25 1026 30.3 855 25.25 4.3 39.8 64 -2 28.5 0 0
09:30 1026 30.3 855 25.25 5 40.9 59 -2.5 27.5 0 0
09:35 1026 30.3 855 25.25 5.4 41.7 57 -2.5 27.5 0 0
09:40 1026 30.3 855 25.25 6 42.8 55 -2.3 27.9 0 0
09:45 1026 30.3 855 25.25 6.6 43.9 54 -2.1 28.2 0 0
09:50 1026 30.3 855 25.25 7.1 44.7 51 -2.2 28 0 0
09:55 1026 30.3 855 25.25 7.4 45.2 53 -1.7 29 0 0
10:00 1026 30.3 855 25.25 7.7 45.8 48 -2.6 27.2 0 0
10:05 1026 30.3 855 25.25 8.6 47.5 44 -2.8 26.9 0 0
10:10 1026 30.3 855 25.25 8.7 47.7 47 -1.9 28.6 0 0
10:15 1026 30.3 855 25.25 8.7 47.6 49 -1.5 29.3 0 0
10:20 1026 30.3 855 25.25 8.7 47.7 49 -1.5 29.4 0 0
10:25 1026 30.3 855 25.25 8.5 47.3 48 -1.9 28.5 0 0
10:30 1026 30.3 855 25.25 8.9 48.1 48 -1.5 29.2 0 0
10:35 1026 30.3 855 25.25 9.1 48.3 45 -2.4 27.8 0 0
10:40 1026 30.3 855 25.25 8.6 47.5 47 -2 28.5 0 0
10:45 1026 30.3 855 25.25 8.7 47.6 44 -2.9 26.7 0 0
10:50 1026 30.3 855 25.25 8.9 48 42 -3.4 25.8 0 0
10:55 1026 30.3 855 25.25 9.1 48.4 42 -3.2 26.3 0 0
11:00 1026 30.3 855 25.25 9.3 48.8 41 -3.2 26.2 0 0
11:05 1026 30.3 855 25.25 9.7 49.4 46 -1.3 29.6 0 0
11:10 1026 30.3 855 25.25 9.6 49.3 42 -2.6 27.3 0 0
11:15 1026 30.3 855 25.25 9.4 48.9 43 -2.6 27.4 0 0
11:20 1026 30.3 855 25.25 9.9 49.8 42 -2.5 27.5 0 0
11:25 1026 30.3 855 25.25 9.9 49.9 44 -1.6 29.1 0 0
11:30 1026 30.3 855 25.25 10.3 50.6 39 -2.9 26.8 0 0
11:35 1026 30.3 855 25.25 10.4 50.6 40 -2.7 27.2 0 0
11:40 1026 30.3 855 25.25 10.3 50.6 41 -2.3 27.8 0 0
11:45 1026 30.3 855 25.25 10 50 40 -2.9 26.8 0 0
11:50 1026 30.3 855 25.25 10.4 50.7 38 -3.3 26.1 0 0
11:55 1026 30.3 855 25.25 10.5 51 42 -1.8 28.8 0 0
12:00 1026 30.3 855 25.25 10.7 51.2 39 -2.6 27.3 0 0
12:05 1025 30.27 855 25.25 10.7 51.3 40 -2.4 27.7 0 0
12:10 1026 30.3 855 25.25 10.9 51.7 42 -1.4 29.5 0 0
12:15 1026 30.3 855 25.25 10.9 51.7 41 -1.7 28.9 0 0
12:20 1026 30.3 855 25.25 11 51.7 39 -2.3 27.9 0 0
12:25 1026 30.3 855 25.25 11.1 51.9 41 -1.7 29 0 0
12:30 1026 30.3 855 25.25 11 51.8 38 -2.6 27.4 0 0
12:35 1026 30.3 855 25.25 10.9 51.5 42 -1.5 29.2 0 0
12:40 1025 30.27 855 25.25 11 51.7 40 -2.2 28.1 0 0
12:45 1025 30.27 855 25.25 10.8 51.4 44 -1.1 30.1 0 0
12:50 1025 30.27 855 25.25 10.9 51.5 42 -1.6 29.1 0 0
12:55 1025 30.27 854 25.22 11.2 52.2 41 -1.5 29.2 0 0
13:00 1025 30.27 854 25.22 11.2 52.2 43 -0.7 30.8 0 0
13:05 1025 30.27 854 25.22 11.3 52.4 40 -1.9 28.7 0 0
13:10 1025 30.27 854 25.22 11.3 52.4 41 -1.5 29.3 0 0
13:15 1025 30.27 854 25.22 11.5 52.7 38 -2.3 27.8 0 0
13:20 1025 30.27 854 25.22 11.4 52.6 38 -2.5 27.6 0 0
13:25 1025 30.27 854 25.22 11.6 52.9 40 -1.4 29.5 0 0
13:30 1025 30.27 854 25.22 11.9 53.4 41 -0.9 30.3 0 0
13:35 1025 30.27 854 25.22 12 53.6 39 -1.4 29.4 0 0
13:40 1025 30.27 854 25.22 11.9 53.4 41 -0.9 30.4 0 0
13:45 1025 30.27 854 25.22 12 53.7 39 -1.6 29.2 0 0
13:50 1025 30.27 854 25.22 12 53.5 38 -2 28.3 0 0
13:55 1025 30.27 854 25.22 12.2 53.9 36 -2.5 27.5 0 0
14:00 1025 30.27 854 25.22 12.2 54 37 -2.1 28.1 0 0
14:05 1025 30.27 854 25.22 12.3 54.2 36 -2.2 28 0 0
14:10 1025 30.27 854 25.22 12.4 54.3 38 -1.3 29.6 0 0
14:15 1025 30.27 854 25.22 12.8 55 36 -2 28.3 0 0
14:20 1025 30.27 854 25.22 12.7 54.8 34 -2.9 26.8 0 0
14:25 1025 30.27 854 25.22 12.7 54.9 34 -2.8 27 0 0
14:30 1025 30.27 854 25.22 12.9 55.2 33 -2.9 26.8 0 0
14:35 1025 30.27 854 25.22 13 55.4 33 -2.8 27 0 0
14:40 1025 30.27 854 25.22 13 55.4 35 -2.1 28.1 0 0
14:45 1025 30.27 854 25.22 13.1 55.5 36 -1.5 29.3 0 0
14:50 1025 30.27 854 25.22 13.3 55.9 33 -2.6 27.3 0 0
14:55 1025 30.27 854 25.22 13.5 56.3 34 -1.9 28.7 0 0
15:00 1024 30.24 854 25.22 13.4 56 36 -1.5 29.3 0 0
15:05 1024 30.24 854 25.22 13.6 56.5 33 -2.3 27.9 0 0
15:10 1024 30.24 854 25.22 13.9 56.9 33 -2 28.4 0 0
15:15 1024 30.24 854 25.22 14.1 57.3 33 -1.8 28.8 0 0
15:20 1024 30.24 854 25.22 14 57.2 32 -2.4 27.6 0 0
15:25 1024 30.24 854 25.22 14.1 57.4 31 -2.5 27.6 0 0
15:30 1024 30.24 854 25.22 14.3 57.7 29 -3.5 25.8 0 0
15:35 1024 30.24 854 25.22 14.6 58.3 30 -2.8 27 0 0
15:40 1024 30.24 853 25.19 14.2 57.6 31 -2.8 27 0 0
15:45 1024 30.24 854 25.22 14.3 57.7 30 -3 26.6 0 0
15:50 1024 30.24 854 25.22 14.4 57.9 31 -2.3 27.8 0 0
15:55 1024 30.24 854 25.22 14.3 57.7 29 -3.4 25.9 0 0
16:00 1024 30.24 854 25.22 14.4 57.8 28 -3.9 24.9 0 0
16:05 1024 30.24 853 25.19 14.5 58.2 30 -2.9 26.7 0 0
16:10 1024 30.24 853 25.19 14.9 58.8 29 -3 26.7 0 0
16:15 1024 30.24 853 25.19 15.1 59.2 28 -3.2 26.2 0 0
16:20 1024 30.24 853 25.19 14.9 58.8 29 -3.1 26.4 0 0
16:25 1024 30.24 853 25.19 15.1 59.1 30 -2.4 27.7 0 0
16:30 1024 30.24 853 25.19 15.2 59.3 30 -2.4 27.8 0 0
16:35 1024 30.24 853 25.19 15 59 28 -3.4 25.9 0 0
16:40 1024 30.24 853 25.19 14.7 58.5 31 -2.2 28.1 0 0
16:45 1024 30.24 853 25.19 14.6 58.3 27 -4.1 24.6 0 0
16:50 1024 30.24 853 25.19 14.7 58.5 29 -2.9 26.8 0 0
16:55 1024 30.24 853 25.19 14.2 57.6 31 -2.7 27.2 0 0
17:00 1024 30.24 853 25.19 14.2 57.6 29 -3.7 25.3 0 0
17:05 1024 30.24 853 25.19 14.5 58 31 -2.6 27.4 0 0
17:10 1024 30.24 853 25.19 14.4 57.8 30 -2.7 27.1 0 0
17:15 1024 30.24 853 25.19 14.5 58 29 -3.1 26.3 0 0
17:20 1024 30.24 853 25.19 14.5 58 33 -1.4 29.5 0 0
17:25 1024 30.24 853 25.19 14.3 57.7 34 -1.2 29.8 0 0
17:30 1024 30.24 853 25.19 14.2 57.5 33 -1.6 29.1 0 0
17:35 1024 30.24 853 25.19 14.2 57.6 36 -0.6 30.8 0 0
17:40 1024 30.24 853 25.19 14 57.2 38 -0.1 31.8 0 0
17:45 1024 30.24 853 25.19 13.7 56.7 38 -0.1 31.7 0 0
17:50 1024 30.24 853 25.19 13.4 56.1 37 -0.9 30.3 0 0
17:55 1024 30.24 853 25.19 13.2 55.8 37 -1.3 29.7 0 0
18:00 1024 30.24 853 25.19 13.1 55.5 36 -1.7 28.9 0 0
18:05 1024 30.24 853 25.19 12.9 55.1 34 -2.6 27.3 0 0
18:10 1024 30.24 853 25.19 12.6 54.7 35 -2.5 27.5 0 0
18:15 1024 30.24 853 25.19 12.3 54.1 38 -1.5 29.2 0 0
18:20 1024 30.24 853 25.19 11.1 52.1 43 -1 30.2 0 0
18:25 1024 30.24 853 25.19 10.2 50.3 42 -2.3 27.8 0 0
18:30 1024 30.24 853 25.19 9.8 49.7 42 -2.6 27.4 0 0
18:35 1024 30.24 853 25.19 9.6 49.2 47 -1.3 29.7 0 0
18:40 1024 30.24 853 25.19 5.7 42.2 63 -0.9 30.4 0 0
18:45 1024 30.24 853 25.19 3.5 38.3 71 -1.2 29.9 0 0
18:50 1024 30.24 853 25.19 2.5 36.4 74 -1.8 28.8 0 0
18:55 1024 30.24 853 25.19 2.3 36.1 76 -1.6 29.2 0 0
19:00 1024 30.24 853 25.19 2.1 35.8 76 -1.7 28.9 0 0
19:05 1024 30.24 853 25.19 2.2 36 74 -1.9 28.6 0 0
19:10 1024 30.24 853 25.19 2.1 35.8 76 -1.7 28.9 0 0
19:15 1024 30.24 853 25.19 2.3 36.1 74 -1.8 28.7 0 0
19:20 1024 30.24 854 25.22 2.1 35.7 72 -2.4 27.6 0 0
19:25 1024 30.24 854 25.22 2.4 36.3 70 -2.5 27.4 0 0
19:30 1024 30.24 854 25.22 2.2 36 71 -2.6 27.3 0 0
19:35 1024 30.24 854 25.22 1.8 35.3 72 -2.7 27.1 0 0
19:40 1024 30.24 854 25.22 1.9 35.5 70 -3 26.6 0 0
19:45 1024 30.24 854 25.22 2.5 36.5 68 -2.8 27 0 0
19:50 1024 30.24 854 25.22 3.4 38.1 63 -3 26.6 0 0
19:55 1025 30.27 854 25.22 4.5 40.1 59 -2.9 26.8 0 0
20:00 1025 30.27 854 25.22 5 40.9 58 -2.5 27.5 0 0
20:05 1025 30.27 854 25.22 4.6 40.3 61 -2.2 28 0 0
20:10 1025 30.27 854 25.22 3.7 38.6 66 -2.1 28.2 0 0
20:15 1025 30.27 854 25.22 2.5 36.6 70 -2.4 27.7 0 0
20:20 1025 30.27 854 25.22 2 35.6 71 -2.8 27 0 0
20:25 1025 30.27 854 25.22 1.8 35.3 72 -2.8 27 0 0
20:30 1025 30.27 854 25.22 1.5 34.6 73 -2.9 26.8 0 0
20:35 1025 30.27 854 25.22 1.1 34.1 73 -3.1 26.4 0 0
20:40 1025 30.27 854 25.22 1.2 34.2 71 -3.5 25.8 0 0
20:45 1025 30.27 854 25.22 2.3 36.2 66 -3.4 25.8 0 0
20:50 1025 30.27 854 25.22 2.6 36.6 64 -3.6 25.6 0 0
20:55 1025 30.27 854 25.22 3.4 38.2 62 -3.2 26.3 0 0
21:00 1025 30.27 854 25.22 3.1 37.5 66 -2.7 27.2 0 0
21:05 1025 30.27 854 25.22 2.1 35.7 71 -2.7 27.2 0 0
21:10 1025 30.27 854 25.22 1.8 35.3 72 -2.7 27.1 0 0
21:15 1025 30.27 854 25.22 2.1 35.9 68 -3.2 26.2 0 0
21:20 1025 30.27 854 25.22 3.2 37.7 64 -2.9 26.7 0 0
21:25 1025 30.27 854 25.22 3.2 37.8 65 -2.6 27.3 0 0
21:30 1025 30.27 854 25.22 3.1 37.7 66 -2.7 27.2 0 0
21:35 1025 30.27 854 25.22 3.1 37.5 65 -2.8 27 0 0
21:40 1025 30.27 854 25.22 2.9 37.2 65 -3.1 26.4 0 0
21:45 1025 30.27 854 25.22 2.9 37.3 65 -3.1 26.4 0 0
21:50 1025 30.27 854 25.22 2.7 36.9 69 -2.5 27.6 0 0
21:55 1025 30.27 854 25.22 2 35.6 70 -3 26.6 0 0
22:00 1025 30.27 854 25.22 2.2 36 68 -3.1 26.5 0 0
22:05 1025 30.27 854 25.22 2.2 35.9 67 -3.3 26.1 0 0
22:10 1025 30.27 854 25.22 2.2 36 68 -3 26.6 0 0
22:15 1025 30.27 854 25.22 1.9 35.4 71 -2.8 26.9 0 0
22:20 1025 30.27 854 25.22 1.4 34.5 74 -2.8 26.9 0 0
22:25 1025 30.27 854 25.22 1.4 34.6 68 -3.7 25.3 0 0
22:30 1025 30.27 854 25.22 3.2 37.7 63 -3.3 26.1 0 0
22:35 1025 30.27 854 25.22 3.4 38.1 62 -3.3 26.1 0 0
22:40 1025 30.27 854 25.22 4 39.2 59 -3.2 26.2 0 0
22:45 1025 30.27 854 25.22 4 39.3 61 -2.9 26.8 0 0
22:50 1025 30.27 854 25.22 4.2 39.5 61 -2.6 27.3 0 0
22:55 1025 30.27 854 25.22 4.2 39.5 63 -2.3 27.9 0 0
23:00 1025 30.27 854 25.22 4 39.2 66 -1.8 28.8 0 0
23:05 1025 30.27 854 25.22 4.1 39.4 67 -1.5 29.4 0 0
23:10 1025 30.27 854 25.22 4 39.3 70 -0.9 30.4 0 0
23:15 1025 30.27 854 25.22 4.4 39.9 71 -0.4 31.2 0 0
23:20 1025 30.27 854 25.22 4.5 40.1 71 -0.3 31.5 0 0
23:25 1025 30.27 854 25.22 4.6 40.2 72 -0.1 31.9 0 0
23:30 1025 30.27 854 25.22 5 41 72 0.3 32.6 0 0
23:35 1025 30.27 854 25.22 5.1 41.2 71 0.2 32.4 0 0
23:40 1025 30.27 854 25.22 5.4 41.7 70 0.3 32.6 0 0
23:45 1025 30.27 854 25.22 5.5 42 71 0.7 33.3 0 0
23:50 1025 30.27 854 25.22 5.5 41.8 71 0.7 33.2 0 0
23:55 1025 30.27 855 25.25 5.6 42.1 71 0.8 33.4 0 0
24:00 1025 30.27 855 25.25 5.6 42.1 72 0.9 33.6 0 0